Airfield :
LOGIN :

Register | Disclaimer

   EN    FR    IT 

 










Legend :    VFR   Marginal VFR   IFR   Intensive IFR   Very Intensive IFR
Visi :
Ceiling :
>= 8 km
>= 3000ft
5 to 8 km
1000 to 3000 ft
1500m to 5 km
500 to 1000 ft
800 to 1500m
200 to 500 ft
< 800m
< 200 ft
Symbols :   Thunderstorms  Fog  Heavy snow  Heavy precipitations  Wind > 20 kt
SIGMETs :     Misc.  Thunderstorms  Icing  Turbulence  Mountain Waves  Volcanic Ashes






- Airport Elevation : 327 ft
- IATA code : BHX


EGBB - Birmingham

CURRENT METAR :
  • 250420Z 32013KT 9999 FEW006 BKN014 14/12 Q1016

EXPIRED METARs :
  • 250350Z 26005KT 6000 -RA SCT007 BKN011 OVC023 14/13 Q1016
  • 250320Z 26005KT 7000 -RA FEW010 SCT019 BKN032 14/13 Q1016
  • 250250Z 26005KT 8000 -RA BKN016 14/13 Q1016
  • 250220Z 24006KT 8000 -RA BKN014 BKN018 13/12 Q1016
  • 250150Z 24005KT 190V270 6000 -RA BKN009 14/12 Q1016

TAF TAF EGBB
Valid from the 25 at 00:00 until the 26 at 00:00 UTC


242255Z 2500/2524 23005KT 9999 SCT030
TEMPO 2500/2509 6000 -RADZ BKN007
PROB30
TEMPO 2500/2506 4000 RADZ BR BKN004
BECMG 2504/2507 32010KT
BECMG 2511/2514 VRB04KT
TEMPO 2513/2524 6000 SHRA
PROB30
TEMPO 2513/2520 4000 +SHRA BKN014 BKN025CB
TEMPO 2520/2524 BKN010
ATIS : +44 121 780 0910



MET'MAP, your aeronautical weather chart ! - Copyright ORBIFLY December 2007 - Disclaimer

ORBIFLY MET'MAP TEAM :

Programming & Development : Alexandra Zaïnal
Concept & original design : Baudouin d'Aumeries
Assistance for programming : Marc-Olivier Méhu
Technical & hardware support : Manuel Goepfert

Contact : metmap@orbifly.com




SOURCES & CREDITS :

   NOAA